BAW21ML KDEN-EGLL
Flight info
| Callsign | BAW21ML |
|---|---|
| Flight time | N/A |
| Altitude | 37000 |
| Route | CHUWY1 CHUWY DCT KP81A DCT KP90C DCT TADIS DCT GRAND DCT JELCO DCT GRIBS/M084F390 DCT KETLA DCT 63N050W 6230N04000W 61N030W 59N020W DCT AGORI/N0482F390 DCT OSBOX DCT MIMKU DCT KELLY L10 WAL UY53 NUGRA |
| Aircraft | A35K/H-SDE2E3GHIJ3J4J5LM1ORWXY/LB1D1 |
Departure
| Time | 2026-05-05 01:28 |
|---|---|
| Airport | Denver International Airport (KDEN) |
Arrival
| Time | N/A |
|---|---|
| Airport | London Heathrow Airport (EGLL) |
| Time | Latitude | Longitude | Altitude | Speed | Heading |
|---|---|---|---|---|---|
| 2026-05-05 00:53 | 39.85452 | -104.67496 | 5372 ft | 0 kts | 186° |
| 2026-05-05 01:12 | 39.85455 | -104.67495 | 5372 ft | 3 kts | 186° |
| 2026-05-05 01:12 | 39.85482 | -104.67491 | 5372 ft | 4 kts | 186° |
| 2026-05-05 01:13 | 39.85509 | -104.67487 | 5372 ft | 4 kts | 186° |
| 2026-05-05 01:13 | 39.85535 | -104.67483 | 5372 ft | 4 kts | 186° |
| 2026-05-05 01:13 | 39.85541 | -104.67483 | 5372 ft | 0 kts | 186° |
| 2026-05-05 01:16 | 39.85539 | -104.67483 | 5372 ft | 0 kts | 190° |
| 2026-05-05 01:16 | 39.85536 | -104.67488 | 5372 ft | 2 kts | 214° |
| 2026-05-05 01:17 | 39.85540 | -104.67511 | 5372 ft | 5 kts | 299° |
| 2026-05-05 01:17 | 39.85588 | -104.67599 | 5372 ft | 14 kts | 282° |
| 2026-05-05 01:17 | 39.85593 | -104.67728 | 5372 ft | 14 kts | 270° |
| 2026-05-05 01:17 | 39.85594 | -104.67859 | 5372 ft | 15 kts | 270° |
| 2026-05-05 01:18 | 39.85595 | -104.67989 | 5372 ft | 15 kts | 271° |
| 2026-05-05 01:18 | 39.85596 | -104.68113 | 5372 ft | 10 kts | 270° |
| 2026-05-05 01:18 | 39.85597 | -104.68197 | 5372 ft | 10 kts | 270° |
| 2026-05-05 01:18 | 39.85598 | -104.68291 | 5372 ft | 11 kts | 270° |
| 2026-05-05 01:19 | 39.85580 | -104.68379 | 5372 ft | 10 kts | 225° |
| 2026-05-05 01:19 | 39.85518 | -104.68398 | 5372 ft | 10 kts | 183° |
| 2026-05-05 01:19 | 39.85450 | -104.68398 | 5372 ft | 10 kts | 180° |
| 2026-05-05 01:19 | 39.85387 | -104.68399 | 5372 ft | 2 kts | 180° |
| 2026-05-05 01:20 | 39.85371 | -104.68399 | 5372 ft | 3 kts | 180° |
| 2026-05-05 01:20 | 39.85348 | -104.68399 | 5372 ft | 4 kts | 181° |
| 2026-05-05 01:20 | 39.85312 | -104.68400 | 5372 ft | 6 kts | 181° |
| 2026-05-05 01:20 | 39.85268 | -104.68401 | 5372 ft | 7 kts | 181° |
| 2026-05-05 01:21 | 39.85220 | -104.68422 | 5372 ft | 8 kts | 222° |
| 2026-05-05 01:21 | 39.85206 | -104.68501 | 5372 ft | 11 kts | 265° |
| 2026-05-05 01:21 | 39.85203 | -104.68630 | 5372 ft | 19 kts | 269° |
| 2026-05-05 01:21 | 39.85201 | -104.68804 | 5372 ft | 19 kts | 268° |
| 2026-05-05 01:22 | 39.85197 | -104.68978 | 5372 ft | 19 kts | 269° |
| 2026-05-05 01:22 | 39.85195 | -104.69152 | 5372 ft | 19 kts | 271° |
| 2026-05-05 01:22 | 39.85199 | -104.69325 | 5372 ft | 17 kts | 272° |
| 2026-05-05 01:22 | 39.85201 | -104.69417 | 5372 ft | 7 kts | 270° |
| 2026-05-05 01:23 | 39.85201 | -104.69440 | 5372 ft | 0 kts | 270° |
| 2026-05-05 01:23 | 39.85201 | -104.69449 | 5372 ft | 5 kts | 270° |
| 2026-05-05 01:23 | 39.85201 | -104.69480 | 5372 ft | 0 kts | 270° |
| 2026-05-05 01:23 | 39.85201 | -104.69481 | 5372 ft | 0 kts | 270° |
| 2026-05-05 01:24 | 39.85201 | -104.69502 | 5372 ft | 9 kts | 270° |
| 2026-05-05 01:24 | 39.85204 | -104.69599 | 5372 ft | 10 kts | 284° |
| 2026-05-05 01:24 | 39.85252 | -104.69651 | 5372 ft | 9 kts | 344° |
| 2026-05-05 01:24 | 39.85314 | -104.69657 | 5372 ft | 9 kts | 1° |
| 2026-05-05 01:25 | 39.85324 | -104.69657 | 5372 ft | 0 kts | 1° |
| 2026-05-05 01:27 | 39.85349 | -104.69656 | 5372 ft | 19 kts | 1° |
| 2026-05-05 01:27 | 39.85737 | -104.69651 | 5375 ft | 92 kts | 0° |
| 2026-05-05 01:27 | 39.86611 | -104.69640 | 5371 ft | 157 kts | 0° |
| 2026-05-05 01:28 | 39.87885 | -104.69629 | 5541 ft | 198 kts | 360° |
| 2026-05-05 01:28 | 39.89218 | -104.69626 | 6476 ft | 187 kts | 359° |
| 2026-05-05 01:28 | 39.90541 | -104.69626 | 6973 ft | 197 kts | 359° |
| 2026-05-05 01:28 | 39.91962 | -104.69596 | 7156 ft | 212 kts | 1° |
| 2026-05-05 01:29 | 39.93487 | -104.69549 | 7355 ft | 225 kts | 1° |
| 2026-05-05 01:29 | 39.95097 | -104.69503 | 7555 ft | 238 kts | 1° |
| 2026-05-05 01:29 | 39.96792 | -104.69458 | 7749 ft | 250 kts | 0° |
| 2026-05-05 01:29 | 39.98583 | -104.69414 | 7888 ft | 264 kts | 0° |
| 2026-05-05 01:30 | 40.00458 | -104.69368 | 8079 ft | 275 kts | 0° |
| 2026-05-05 01:30 | 40.02397 | -104.69304 | 8266 ft | 284 kts | 3° |
| 2026-05-05 01:30 | 40.04343 | -104.68753 | 8483 ft | 290 kts | 24° |
| 2026-05-05 01:30 | 40.06115 | -104.67466 | 8791 ft | 293 kts | 32° |
| 2026-05-05 01:31 | 40.07827 | -104.66014 | 9095 ft | 295 kts | 33° |
| 2026-05-05 01:31 | 40.09553 | -104.64538 | 9476 ft | 299 kts | 33° |
| 2026-05-05 01:31 | 40.11304 | -104.63050 | 10137 ft | 300 kts | 33° |
| 2026-05-05 01:31 | 40.13085 | -104.61543 | 10584 ft | 312 kts | 33° |
| 2026-05-05 01:32 | 40.14949 | -104.59971 | 10875 ft | 327 kts | 33° |
| 2026-05-05 01:32 | 40.16896 | -104.58330 | 11159 ft | 340 kts | 33° |
| 2026-05-05 01:32 | 40.18931 | -104.56615 | 11425 ft | 353 kts | 33° |
| 2026-05-05 01:32 | 40.21017 | -104.54857 | 11664 ft | 365 kts | 33° |
| 2026-05-05 01:33 | 40.23185 | -104.53029 | 11889 ft | 376 kts | 33° |
| 2026-05-05 01:33 | 40.25403 | -104.51157 | 12139 ft | 383 kts | 33° |
| 2026-05-05 01:33 | 40.27657 | -104.49253 | 12481 ft | 387 kts | 33° |
| 2026-05-05 01:33 | 40.29930 | -104.47332 | 12851 ft | 390 kts | 33° |
| 2026-05-05 01:34 | 40.32215 | -104.45398 | 13207 ft | 393 kts | 33° |
| 2026-05-05 01:34 | 40.34521 | -104.43446 | 13545 ft | 395 kts | 33° |
| 2026-05-05 01:34 | 40.36837 | -104.41483 | 13871 ft | 398 kts | 33° |
| 2026-05-05 01:34 | 40.38379 | -104.40176 | 14084 ft | 399 kts | 33° |
| 2026-05-05 01:35 | 40.40717 | -104.38192 | 14391 ft | 401 kts | 33° |
| 2026-05-05 01:35 | 40.43067 | -104.36197 | 14688 ft | 403 kts | 33° |
| 2026-05-05 01:35 | 40.45431 | -104.34187 | 14973 ft | 405 kts | 33° |
| 2026-05-05 01:35 | 40.47804 | -104.32168 | 15245 ft | 407 kts | 33° |
| 2026-05-05 01:36 | 40.50104 | -104.30210 | 15498 ft | 409 kts | 33° |
| 2026-05-05 01:36 | 40.52511 | -104.28159 | 15750 ft | 411 kts | 33° |
| 2026-05-05 01:36 | 40.54918 | -104.26107 | 15991 ft | 413 kts | 33° |
| 2026-05-05 01:36 | 40.57270 | -104.23932 | 16225 ft | 415 kts | 39° |
| 2026-05-05 01:37 | 40.59385 | -104.21345 | 16471 ft | 416 kts | 46° |
| 2026-05-05 01:37 | 40.61369 | -104.18553 | 16710 ft | 418 kts | 47° |
| 2026-05-05 01:37 | 40.63338 | -104.15733 | 16935 ft | 420 kts | 47° |
| 2026-05-05 01:37 | 40.65318 | -104.12897 | 17172 ft | 422 kts | 47° |
| 2026-05-05 01:38 | 40.67310 | -104.10046 | 17412 ft | 423 kts | 47° |
| 2026-05-05 01:38 | 40.69308 | -104.07187 | 17651 ft | 425 kts | 47° |
| 2026-05-05 01:38 | 40.71294 | -104.04343 | 17887 ft | 427 kts | 47° |
| 2026-05-05 01:38 | 40.73309 | -104.01457 | 18124 ft | 428 kts | 47° |
| 2026-05-05 01:39 | 40.75341 | -103.98545 | 18363 ft | 430 kts | 47° |
| 2026-05-05 01:39 | 40.77372 | -103.95632 | 18600 ft | 432 kts | 47° |
| 2026-05-05 01:39 | 40.79408 | -103.92708 | 18845 ft | 434 kts | 47° |
| 2026-05-05 01:39 | 40.81435 | -103.89794 | 19086 ft | 436 kts | 47° |
| 2026-05-05 01:40 | 40.83488 | -103.86841 | 19326 ft | 437 kts | 47° |
| 2026-05-05 01:40 | 40.85550 | -103.83871 | 19562 ft | 439 kts | 47° |
| 2026-05-05 01:40 | 40.87622 | -103.80884 | 19798 ft | 441 kts | 47° |
| 2026-05-05 01:40 | 40.89706 | -103.77878 | 20038 ft | 443 kts | 47° |
| 2026-05-05 01:41 | 40.91797 | -103.74857 | 20274 ft | 445 kts | 47° |
| 2026-05-05 01:41 | 40.93890 | -103.71831 | 20504 ft | 447 kts | 47° |
| 2026-05-05 01:41 | 40.95970 | -103.68820 | 20726 ft | 448 kts | 47° |
| 2026-05-05 01:41 | 40.98085 | -103.65757 | 20949 ft | 450 kts | 47° |
| 2026-05-05 01:42 | 41.00202 | -103.62687 | 21169 ft | 452 kts | 47° |
| 2026-05-05 01:42 | 41.02329 | -103.59599 | 21383 ft | 454 kts | 47° |
| 2026-05-05 01:42 | 41.04434 | -103.56539 | 21590 ft | 455 kts | 47° |
| 2026-05-05 01:42 | 41.06576 | -103.53424 | 21797 ft | 457 kts | 47° |
| 2026-05-05 01:43 | 41.08720 | -103.50301 | 22000 ft | 459 kts | 47° |
| 2026-05-05 01:43 | 41.10874 | -103.47161 | 22200 ft | 460 kts | 47° |
| 2026-05-05 01:43 | 41.13034 | -103.44008 | 22397 ft | 462 kts | 47° |
| 2026-05-05 01:43 | 41.15201 | -103.40844 | 22593 ft | 463 kts | 47° |
| 2026-05-05 01:44 | 41.17350 | -103.37700 | 22782 ft | 465 kts | 48° |
| 2026-05-05 01:44 | 41.19533 | -103.34504 | 22973 ft | 467 kts | 48° |
| 2026-05-05 01:44 | 41.21715 | -103.31307 | 23160 ft | 468 kts | 48° |
| 2026-05-05 01:44 | 41.23913 | -103.28090 | 23346 ft | 470 kts | 47° |
| 2026-05-05 01:45 | 41.26091 | -103.24895 | 23530 ft | 471 kts | 48° |
| 2026-05-05 01:45 | 41.28289 | -103.21659 | 23709 ft | 473 kts | 48° |
| 2026-05-05 01:45 | 41.30502 | -103.18401 | 23886 ft | 474 kts | 48° |
| 2026-05-05 01:45 | 41.32716 | -103.15137 | 24060 ft | 476 kts | 48° |
| 2026-05-05 01:46 | 41.34937 | -103.11860 | 24234 ft | 477 kts | 48° |
| 2026-05-05 01:46 | 41.37169 | -103.08564 | 24407 ft | 479 kts | 48° |
| 2026-05-05 01:46 | 41.39407 | -103.05257 | 24578 ft | 480 kts | 48° |
| 2026-05-05 01:46 | 41.41649 | -103.01938 | 24748 ft | 482 kts | 48° |
| 2026-05-05 01:47 | 41.43870 | -102.98649 | 24916 ft | 483 kts | 48° |
| 2026-05-05 01:47 | 41.46116 | -102.95317 | 25084 ft | 484 kts | 48° |
| 2026-05-05 01:47 | 41.48380 | -102.91956 | 25251 ft | 486 kts | 48° |
| 2026-05-05 01:47 | 41.50649 | -102.88585 | 25416 ft | 487 kts | 48° |
| 2026-05-05 01:48 | 41.52905 | -102.85269 | 25581 ft | 489 kts | 47° |
| 2026-05-05 01:48 | 41.55258 | -102.81972 | 25747 ft | 490 kts | 46° |
| 2026-05-05 01:48 | 41.57654 | -102.78696 | 25911 ft | 492 kts | 45° |
| 2026-05-05 01:48 | 41.60062 | -102.75426 | 26073 ft | 493 kts | 45° |
| 2026-05-05 01:49 | 41.62470 | -102.72144 | 26236 ft | 495 kts | 45° |
| 2026-05-05 01:49 | 41.64880 | -102.68839 | 26394 ft | 496 kts | 46° |
| 2026-05-05 01:49 | 41.67285 | -102.65522 | 26551 ft | 497 kts | 46° |
| 2026-05-05 01:49 | 41.69661 | -102.62228 | 26703 ft | 499 kts | 46° |
| 2026-05-05 01:50 | 41.72076 | -102.58870 | 26859 ft | 500 kts | 46° |
| 2026-05-05 01:50 | 41.74498 | -102.55497 | 27012 ft | 501 kts | 46° |
| 2026-05-05 01:50 | 41.76924 | -102.52113 | 27165 ft | 503 kts | 46° |
| 2026-05-05 01:50 | 41.79325 | -102.48761 | 27317 ft | 504 kts | 46° |
| 2026-05-05 01:51 | 41.81763 | -102.45353 | 27471 ft | 506 kts | 46° |
| 2026-05-05 01:51 | 41.84192 | -102.41954 | 27626 ft | 507 kts | 46° |
| 2026-05-05 01:51 | 41.86641 | -102.38525 | 27783 ft | 508 kts | 46° |
| 2026-05-05 01:51 | 41.89090 | -102.35091 | 27938 ft | 510 kts | 46° |
| 2026-05-05 01:52 | 41.91547 | -102.31642 | 28091 ft | 511 kts | 46° |
| 2026-05-05 01:52 | 41.94008 | -102.28183 | 28242 ft | 513 kts | 46° |
| 2026-05-05 01:52 | 41.96481 | -102.24704 | 28387 ft | 514 kts | 46° |
| 2026-05-05 01:52 | 41.98957 | -102.21216 | 28526 ft | 515 kts | 46° |
| 2026-05-05 01:53 | 42.01407 | -102.17761 | 28659 ft | 517 kts | 46° |
| 2026-05-05 01:53 | 42.03893 | -102.14249 | 28788 ft | 518 kts | 46° |
| 2026-05-05 01:53 | 42.06381 | -102.10731 | 28916 ft | 519 kts | 46° |
| 2026-05-05 01:53 | 42.08877 | -102.07198 | 29038 ft | 520 kts | 46° |
| 2026-05-05 01:54 | 42.11381 | -102.03650 | 29155 ft | 521 kts | 46° |
| 2026-05-05 01:54 | 42.13860 | -102.00132 | 29265 ft | 523 kts | 46° |
| 2026-05-05 01:54 | 42.16361 | -101.96578 | 29374 ft | 524 kts | 46° |
| 2026-05-05 01:54 | 42.18872 | -101.93006 | 29478 ft | 525 kts | 46° |
| 2026-05-05 01:55 | 42.23906 | -101.85832 | 29670 ft | 526 kts | 46° |
| 2026-05-05 01:55 | 42.28951 | -101.78624 | 29844 ft | 528 kts | 46° |
| 2026-05-05 01:56 | 42.33981 | -101.71419 | 30004 ft | 530 kts | 46° |
| 2026-05-05 01:56 | 42.39053 | -101.64136 | 30151 ft | 531 kts | 47° |
| 2026-05-05 01:57 | 42.44109 | -101.56858 | 30288 ft | 533 kts | 47° |
| 2026-05-05 01:57 | 42.49193 | -101.49520 | 30412 ft | 534 kts | 47° |
| 2026-05-05 01:58 | 42.54286 | -101.42151 | 30524 ft | 535 kts | 47° |
| 2026-05-05 01:58 | 42.59381 | -101.34760 | 30630 ft | 536 kts | 47° |
| 2026-05-05 01:59 | 42.64452 | -101.27385 | 30727 ft | 537 kts | 47° |
| 2026-05-05 01:59 | 42.69556 | -101.19943 | 30814 ft | 538 kts | 47° |
| 2026-05-05 02:00 | 42.74643 | -101.12507 | 30893 ft | 539 kts | 47° |
| 2026-05-05 02:00 | 42.79762 | -101.05005 | 30969 ft | 539 kts | 47° |
| 2026-05-05 02:01 | 42.84869 | -100.97499 | 31038 ft | 540 kts | 47° |
| 2026-05-05 02:01 | 42.89950 | -100.90013 | 31101 ft | 541 kts | 47° |
| 2026-05-05 02:02 | 42.95061 | -100.82464 | 31159 ft | 541 kts | 47° |
| 2026-05-05 02:02 | 43.00177 | -100.74887 | 31213 ft | 542 kts | 47° |
| 2026-05-05 02:03 | 43.05296 | -100.67285 | 31265 ft | 542 kts | 47° |
| 2026-05-05 02:03 | 43.10379 | -100.59716 | 31310 ft | 543 kts | 47° |
| 2026-05-05 02:04 | 43.15498 | -100.52074 | 31351 ft | 543 kts | 47° |
| 2026-05-05 02:04 | 43.20580 | -100.44466 | 31392 ft | 543 kts | 47° |
| 2026-05-05 02:05 | 43.25694 | -100.36791 | 31429 ft | 544 kts | 47° |
| 2026-05-05 02:05 | 43.30777 | -100.29141 | 31463 ft | 544 kts | 47° |
| 2026-05-05 02:06 | 43.35889 | -100.21428 | 31497 ft | 544 kts | 47° |
| 2026-05-05 02:06 | 43.40961 | -100.13753 | 31534 ft | 545 kts | 47° |
| 2026-05-05 02:07 | 43.46055 | -100.06026 | 31578 ft | 544 kts | 48° |
| 2026-05-05 02:07 | 43.51155 | -99.98288 | 31611 ft | 545 kts | 47° |
| 2026-05-05 02:08 | 43.56583 | -99.91087 | 31647 ft | 545 kts | 42° |
| 2026-05-05 02:08 | 43.62234 | -99.84078 | 31678 ft | 545 kts | 42° |
| 2026-05-05 02:09 | 43.67837 | -99.76991 | 31714 ft | 545 kts | 43° |
| 2026-05-05 02:09 | 43.73344 | -99.69878 | 31747 ft | 545 kts | 43° |
| 2026-05-05 02:10 | 43.78870 | -99.62677 | 31777 ft | 545 kts | 43° |
| 2026-05-05 02:10 | 43.84397 | -99.55456 | 31808 ft | 545 kts | 43° |
| 2026-05-05 02:11 | 43.89876 | -99.48287 | 31839 ft | 544 kts | 43° |
| 2026-05-05 02:11 | 43.95386 | -99.41059 | 31870 ft | 544 kts | 43° |